sensor_id;sensor_type;location;lat;lon;timestamp;P1;durP1;ratioP1;P2;durP2;ratioP2
45522;SDS011;31254;51.680;5.394;2023-02-10T00:01:36;44.50;;;23.13;;
45522;SDS011;31254;51.680;5.394;2023-02-10T00:04:05;48.40;;;23.17;;
45522;SDS011;31254;51.680;5.394;2023-02-10T00:06:32;41.97;;;23.13;;
45522;SDS011;31254;51.680;5.394;2023-02-10T00:08:59;47.27;;;21.80;;
45522;SDS011;31254;51.680;5.394;2023-02-10T00:11:29;43.60;;;22.33;;
45522;SDS011;31254;51.680;5.394;2023-02-10T00:14:15;46.07;;;23.20;;
45522;SDS011;31254;51.680;5.394;2023-02-10T00:16:43;41.37;;;22.50;;
45522;SDS011;31254;51.680;5.394;2023-02-10T00:19:13;41.23;;;22.23;;
45522;SDS011;31254;51.680;5.394;2023-02-10T00:21:39;45.97;;;23.37;;
45522;SDS011;31254;51.680;5.394;2023-02-10T00:24:06;42.00;;;22.37;;
45522;SDS011;31254;51.680;5.394;2023-02-10T00:26:35;43.53;;;21.57;;
45522;SDS011;31254;51.680;5.394;2023-02-10T00:29:02;40.00;;;21.53;;
45522;SDS011;31254;51.680;5.394;2023-02-10T00:31:29;45.40;;;22.73;;
45522;SDS011;31254;51.680;5.394;2023-02-10T00:33:56;43.60;;;22.10;;
45522;SDS011;31254;51.680;5.394;2023-02-10T00:36:25;44.00;;;21.90;;
45522;SDS011;31254;51.680;5.394;2023-02-10T00:38:54;46.93;;;21.50;;
45522;SDS011;31254;51.680;5.394;2023-02-10T00:41:21;43.33;;;23.53;;
45522;SDS011;31254;51.680;5.394;2023-02-10T00:43:49;38.53;;;22.13;;
45522;SDS011;31254;51.680;5.394;2023-02-10T00:46:20;47.93;;;21.57;;
45522;SDS011;31254;51.680;5.394;2023-02-10T00:48:47;44.23;;;22.20;;
45522;SDS011;31254;51.680;5.394;2023-02-10T00:51:15;40.53;;;21.83;;
45522;SDS011;31254;51.680;5.394;2023-02-10T00:53:44;44.33;;;21.67;;
45522;SDS011;31254;51.680;5.394;2023-02-10T00:56:11;39.37;;;21.33;;
45522;SDS011;31254;51.680;5.394;2023-02-10T00:58:38;40.97;;;21.17;;
45522;SDS011;31254;51.680;5.394;2023-02-10T01:01:05;40.73;;;21.67;;
45522;SDS011;31254;51.680;5.394;2023-02-10T01:03:34;38.23;;;21.33;;
45522;SDS011;31254;51.680;5.394;2023-02-10T01:06:00;42.33;;;21.80;;
45522;SDS011;31254;51.680;5.394;2023-02-10T01:08:30;42.30;;;22.07;;
45522;SDS011;31254;51.680;5.394;2023-02-10T01:11:05;46.97;;;23.03;;
45522;SDS011;31254;51.680;5.394;2023-02-10T01:13:34;44.70;;;21.87;;
45522;SDS011;31254;51.680;5.394;2023-02-10T01:16:20;40.37;;;21.00;;
45522;SDS011;31254;51.680;5.394;2023-02-10T01:18:47;40.67;;;20.87;;
45522;SDS011;31254;51.680;5.394;2023-02-10T01:21:15;42.37;;;20.73;;
45522;SDS011;31254;51.680;5.394;2023-02-10T01:23:46;38.60;;;20.77;;
45522;SDS011;31254;51.680;5.394;2023-02-10T01:26:13;37.27;;;20.67;;
45522;SDS011;31254;51.680;5.394;2023-02-10T01:28:43;36.17;;;19.50;;
45522;SDS011;31254;51.680;5.394;2023-02-10T01:31:11;48.00;;;22.10;;
45522;SDS011;31254;51.680;5.394;2023-02-10T01:33:39;38.57;;;21.27;;
45522;SDS011;31254;51.680;5.394;2023-02-10T01:36:10;43.50;;;21.87;;
45522;SDS011;31254;51.680;5.394;2023-02-10T01:38:41;42.63;;;22.27;;
45522;SDS011;31254;51.680;5.394;2023-02-10T01:41:08;36.07;;;20.77;;
45522;SDS011;31254;51.680;5.394;2023-02-10T01:43:54;42.00;;;20.70;;
45522;SDS011;31254;51.680;5.394;2023-02-10T01:46:31;37.70;;;20.73;;
45522;SDS011;31254;51.680;5.394;2023-02-10T01:49:00;42.50;;;22.00;;
45522;SDS011;31254;51.680;5.394;2023-02-10T01:51:41;40.87;;;22.27;;
45522;SDS011;31254;51.680;5.394;2023-02-10T01:54:12;41.10;;;22.13;;
45522;SDS011;31254;51.680;5.394;2023-02-10T01:56:45;40.20;;;21.10;;
45522;SDS011;31254;51.680;5.394;2023-02-10T01:59:13;41.57;;;21.90;;
45522;SDS011;31254;51.680;5.394;2023-02-10T02:01:40;42.10;;;22.50;;
45522;SDS011;31254;51.680;5.394;2023-02-10T02:04:07;39.03;;;20.77;;
45522;SDS011;31254;51.680;5.394;2023-02-10T02:06:34;42.37;;;21.13;;
45522;SDS011;31254;51.680;5.394;2023-02-10T02:09:01;42.00;;;22.40;;
45522;SDS011;31254;51.680;5.394;2023-02-10T02:11:39;42.70;;;21.97;;
45522;SDS011;31254;51.680;5.394;2023-02-10T02:17:28;40.93;;;21.23;;
45522;SDS011;31254;51.680;5.394;2023-02-10T02:28:39;43.33;;;20.87;;
45522;SDS011;31254;51.680;5.394;2023-02-10T02:34:12;35.83;;;19.70;;
45522;SDS011;31254;51.680;5.394;2023-02-10T02:36:46;40.20;;;21.13;;
45522;SDS011;31254;51.680;5.394;2023-02-10T02:39:14;36.17;;;21.20;;
45522;SDS011;31254;51.680;5.394;2023-02-10T02:41:43;42.17;;;20.63;;
45522;SDS011;31254;51.680;5.394;2023-02-10T02:44:10;36.87;;;20.20;;
45522;SDS011;31254;51.680;5.394;2023-02-10T02:49:49;37.87;;;19.90;;
45522;SDS011;31254;51.680;5.394;2023-02-10T02:52:23;42.97;;;20.17;;
45522;SDS011;31254;51.680;5.394;2023-02-10T02:55:06;46.10;;;22.27;;
45522;SDS011;31254;51.680;5.394;2023-02-10T02:57:50;38.60;;;21.70;;
45522;SDS011;31254;51.680;5.394;2023-02-10T03:00:27;39.53;;;21.27;;
45522;SDS011;31254;51.680;5.394;2023-02-10T03:02:57;39.37;;;22.33;;
45522;SDS011;31254;51.680;5.394;2023-02-10T03:05:29;41.97;;;22.43;;
45522;SDS011;31254;51.680;5.394;2023-02-10T03:07:58;42.10;;;22.23;;
45522;SDS011;31254;51.680;5.394;2023-02-10T03:10:24;47.60;;;23.53;;
45522;SDS011;31254;51.680;5.394;2023-02-10T03:12:51;43.93;;;22.23;;
45522;SDS011;31254;51.680;5.394;2023-02-10T03:15:18;47.40;;;23.47;;
45522;SDS011;31254;51.680;5.394;2023-02-10T03:17:47;43.97;;;21.67;;
45522;SDS011;31254;51.680;5.394;2023-02-10T03:20:14;51.40;;;23.17;;
45522;SDS011;31254;51.680;5.394;2023-02-10T03:22:41;40.87;;;22.17;;
45522;SDS011;31254;51.680;5.394;2023-02-10T03:25:08;43.60;;;22.40;;
45522;SDS011;31254;51.680;5.394;2023-02-10T03:27:35;42.47;;;21.83;;
45522;SDS011;31254;51.680;5.394;2023-02-10T03:30:02;43.23;;;22.87;;
45522;SDS011;31254;51.680;5.394;2023-02-10T03:32:28;41.67;;;22.87;;
45522;SDS011;31254;51.680;5.394;2023-02-10T03:34:55;45.30;;;23.47;;
45522;SDS011;31254;51.680;5.394;2023-02-10T03:37:22;46.90;;;24.17;;
45522;SDS011;31254;51.680;5.394;2023-02-10T03:39:51;47.07;;;23.67;;
45522;SDS011;31254;51.680;5.394;2023-02-10T03:42:19;43.27;;;24.07;;
45522;SDS011;31254;51.680;5.394;2023-02-10T03:44:46;51.53;;;24.53;;
45522;SDS011;31254;51.680;5.394;2023-02-10T03:47:13;42.27;;;23.83;;
45522;SDS011;31254;51.680;5.394;2023-02-10T03:49:42;50.50;;;24.30;;
45522;SDS011;31254;51.680;5.394;2023-02-10T03:52:08;47.00;;;23.73;;
45522;SDS011;31254;51.680;5.394;2023-02-10T03:54:35;49.07;;;24.30;;
45522;SDS011;31254;51.680;5.394;2023-02-10T03:57:02;46.77;;;24.40;;
45522;SDS011;31254;51.680;5.394;2023-02-10T03:59:28;46.20;;;25.57;;
45522;SDS011;31254;51.680;5.394;2023-02-10T04:01:55;54.80;;;26.10;;
45522;SDS011;31254;51.680;5.394;2023-02-10T04:04:22;45.17;;;25.00;;
45522;SDS011;31254;51.680;5.394;2023-02-10T04:06:48;52.03;;;25.87;;
45522;SDS011;31254;51.680;5.394;2023-02-10T04:09:15;46.37;;;25.20;;
45522;SDS011;31254;51.680;5.394;2023-02-10T04:11:44;48.00;;;24.23;;
45522;SDS011;31254;51.680;5.394;2023-02-10T04:14:14;45.73;;;23.73;;
45522;SDS011;31254;51.680;5.394;2023-02-10T04:16:40;55.37;;;26.53;;
45522;SDS011;31254;51.680;5.394;2023-02-10T04:19:07;47.40;;;24.80;;
45522;SDS011;31254;51.680;5.394;2023-02-10T04:21:36;47.70;;;24.87;;
45522;SDS011;31254;51.680;5.394;2023-02-10T04:24:03;46.50;;;24.80;;
45522;SDS011;31254;51.680;5.394;2023-02-10T04:26:30;54.23;;;26.27;;
45522;SDS011;31254;51.680;5.394;2023-02-10T04:28:56;54.00;;;25.27;;
45522;SDS011;31254;51.680;5.394;2023-02-10T04:31:23;49.80;;;26.33;;
45522;SDS011;31254;51.680;5.394;2023-02-10T04:33:50;50.30;;;26.87;;
45522;SDS011;31254;51.680;5.394;2023-02-10T04:36:19;55.93;;;27.00;;
45522;SDS011;31254;51.680;5.394;2023-02-10T04:38:48;56.13;;;26.67;;
45522;SDS011;31254;51.680;5.394;2023-02-10T04:41:15;51.13;;;26.93;;
45522;SDS011;31254;51.680;5.394;2023-02-10T04:43:41;54.63;;;27.53;;
45522;SDS011;31254;51.680;5.394;2023-02-10T04:46:08;51.93;;;27.37;;
45522;SDS011;31254;51.680;5.394;2023-02-10T04:48:35;49.13;;;26.00;;
45522;SDS011;31254;51.680;5.394;2023-02-10T04:51:05;55.80;;;26.50;;
45522;SDS011;31254;51.680;5.394;2023-02-10T04:53:36;57.83;;;27.37;;
45522;SDS011;31254;51.680;5.394;2023-02-10T04:56:04;49.90;;;26.30;;
45522;SDS011;31254;51.680;5.394;2023-02-10T04:58:31;53.03;;;27.23;;
45522;SDS011;31254;51.680;5.394;2023-02-10T05:00:58;51.93;;;26.13;;
45522;SDS011;31254;51.680;5.394;2023-02-10T05:03:27;56.67;;;27.10;;
45522;SDS011;31254;51.680;5.394;2023-02-10T05:05:54;61.87;;;29.50;;
45522;SDS011;31254;51.680;5.394;2023-02-10T05:08:20;51.20;;;28.77;;
45522;SDS011;31254;51.680;5.394;2023-02-10T05:10:50;53.70;;;27.60;;
45522;SDS011;31254;51.680;5.394;2023-02-10T05:13:18;56.50;;;29.37;;
45522;SDS011;31254;51.680;5.394;2023-02-10T05:15:46;54.23;;;27.63;;
45522;SDS011;31254;51.680;5.394;2023-02-10T05:18:13;56.30;;;28.47;;
45522;SDS011;31254;51.680;5.394;2023-02-10T05:20:40;60.30;;;30.03;;
45522;SDS011;31254;51.680;5.394;2023-02-10T05:23:06;52.37;;;27.43;;
45522;SDS011;31254;51.680;5.394;2023-02-10T05:25:38;57.97;;;27.83;;
45522;SDS011;31254;51.680;5.394;2023-02-10T05:28:05;54.77;;;27.93;;
45522;SDS011;31254;51.680;5.394;2023-02-10T05:30:33;52.97;;;27.13;;
45522;SDS011;31254;51.680;5.394;2023-02-10T05:33:02;56.97;;;29.70;;
45522;SDS011;31254;51.680;5.394;2023-02-10T05:35:28;58.07;;;28.10;;
45522;SDS011;31254;51.680;5.394;2023-02-10T05:37:55;62.03;;;28.10;;
45522;SDS011;31254;51.680;5.394;2023-02-10T05:40:22;55.53;;;28.87;;
45522;SDS011;31254;51.680;5.394;2023-02-10T05:42:51;69.97;;;31.53;;
45522;SDS011;31254;51.680;5.394;2023-02-10T05:45:18;74.03;;;31.90;;
45522;SDS011;31254;51.680;5.394;2023-02-10T05:47:44;73.93;;;31.80;;
45522;SDS011;31254;51.680;5.394;2023-02-10T05:50:11;75.90;;;31.77;;
45522;SDS011;31254;51.680;5.394;2023-02-10T05:52:38;76.97;;;30.13;;
45522;SDS011;31254;51.680;5.394;2023-02-10T05:55:05;85.33;;;29.60;;
45522;SDS011;31254;51.680;5.394;2023-02-10T05:57:32;113.53;;;30.20;;
45522;SDS011;31254;51.680;5.394;2023-02-10T05:59:59;96.53;;;29.70;;
45522;SDS011;31254;51.680;5.394;2023-02-10T06:02:26;143.43;;;30.20;;
45522;SDS011;31254;51.680;5.394;2023-02-10T06:04:52;99.97;;;30.53;;
45522;SDS011;31254;51.680;5.394;2023-02-10T06:07:19;96.37;;;30.23;;
45522;SDS011;31254;51.680;5.394;2023-02-10T06:09:48;91.50;;;29.67;;
45522;SDS011;31254;51.680;5.394;2023-02-10T06:12:17;96.03;;;30.27;;
45522;SDS011;31254;51.680;5.394;2023-02-10T06:14:44;94.27;;;30.90;;
45522;SDS011;31254;51.680;5.394;2023-02-10T06:17:10;80.17;;;31.30;;
45522;SDS011;31254;51.680;5.394;2023-02-10T06:19:37;125.37;;;29.57;;
45522;SDS011;31254;51.680;5.394;2023-02-10T06:22:07;108.17;;;29.67;;
45522;SDS011;31254;51.680;5.394;2023-02-10T06:24:35;95.67;;;30.33;;
45522;SDS011;31254;51.680;5.394;2023-02-10T06:27:02;153.90;;;29.03;;
45522;SDS011;31254;51.680;5.394;2023-02-10T06:29:31;141.43;;;29.97;;
45522;SDS011;31254;51.680;5.394;2023-02-10T06:31:58;89.67;;;29.20;;
45522;SDS011;31254;51.680;5.394;2023-02-10T06:34:24;69.57;;;28.50;;
45522;SDS011;31254;51.680;5.394;2023-02-10T06:36:51;94.77;;;28.83;;
45522;SDS011;31254;51.680;5.394;2023-02-10T06:39:18;89.53;;;27.57;;
45522;SDS011;31254;51.680;5.394;2023-02-10T06:41:45;104.70;;;26.87;;
45522;SDS011;31254;51.680;5.394;2023-02-10T06:44:11;96.00;;;27.47;;
45522;SDS011;31254;51.680;5.394;2023-02-10T06:46:38;81.73;;;27.03;;
45522;SDS011;31254;51.680;5.394;2023-02-10T06:49:05;141.43;;;28.70;;
45522;SDS011;31254;51.680;5.394;2023-02-10T06:51:31;127.70;;;26.90;;
45522;SDS011;31254;51.680;5.394;2023-02-10T06:54:00;122.20;;;28.23;;
45522;SDS011;31254;51.680;5.394;2023-02-10T06:56:29;160.73;;;28.40;;
45522;SDS011;31254;51.680;5.394;2023-02-10T06:58:56;111.70;;;27.33;;
45522;SDS011;31254;51.680;5.394;2023-02-10T07:01:27;70.67;;;26.37;;
45522;SDS011;31254;51.680;5.394;2023-02-10T07:03:58;150.93;;;27.20;;
45522;SDS011;31254;51.680;5.394;2023-02-10T07:06:25;126.77;;;26.90;;
45522;SDS011;31254;51.680;5.394;2023-02-10T07:08:52;112.13;;;28.10;;
45522;SDS011;31254;51.680;5.394;2023-02-10T07:11:18;132.27;;;27.67;;
45522;SDS011;31254;51.680;5.394;2023-02-10T07:13:45;116.60;;;28.03;;
45522;SDS011;31254;51.680;5.394;2023-02-10T07:16:14;109.97;;;26.67;;
45522;SDS011;31254;51.680;5.394;2023-02-10T07:18:43;78.53;;;28.27;;
45522;SDS011;31254;51.680;5.394;2023-02-10T07:21:09;101.23;;;27.30;;
45522;SDS011;31254;51.680;5.394;2023-02-10T07:23:36;104.50;;;27.67;;
45522;SDS011;31254;51.680;5.394;2023-02-10T07:26:04;102.00;;;26.13;;
45522;SDS011;31254;51.680;5.394;2023-02-10T07:28:31;98.37;;;26.63;;
45522;SDS011;31254;51.680;5.394;2023-02-10T07:30:59;95.60;;;26.70;;
45522;SDS011;31254;51.680;5.394;2023-02-10T07:33:26;117.17;;;27.27;;
45522;SDS011;31254;51.680;5.394;2023-02-10T07:35:58;96.97;;;27.83;;
45522;SDS011;31254;51.680;5.394;2023-02-10T07:38:26;105.67;;;26.93;;
45522;SDS011;31254;51.680;5.394;2023-02-10T07:40:55;85.33;;;26.43;;
45522;SDS011;31254;51.680;5.394;2023-02-10T07:43:22;89.77;;;28.23;;
45522;SDS011;31254;51.680;5.394;2023-02-10T07:45:49;93.30;;;27.23;;
45522;SDS011;31254;51.680;5.394;2023-02-10T07:48:21;115.80;;;26.93;;
45522;SDS011;31254;51.680;5.394;2023-02-10T07:50:47;107.17;;;27.27;;
45522;SDS011;31254;51.680;5.394;2023-02-10T07:53:15;74.60;;;27.13;;
45522;SDS011;31254;51.680;5.394;2023-02-10T07:55:42;98.53;;;28.07;;
45522;SDS011;31254;51.680;5.394;2023-02-10T07:58:11;93.40;;;27.37;;
45522;SDS011;31254;51.680;5.394;2023-02-10T08:00:38;71.73;;;26.87;;
45522;SDS011;31254;51.680;5.394;2023-02-10T08:03:04;77.53;;;26.90;;
45522;SDS011;31254;51.680;5.394;2023-02-10T08:05:31;90.50;;;27.50;;
45522;SDS011;31254;51.680;5.394;2023-02-10T08:07:58;91.90;;;28.70;;
45522;SDS011;31254;51.680;5.394;2023-02-10T08:10:27;73.30;;;27.43;;
45522;SDS011;31254;51.680;5.394;2023-02-10T08:12:56;90.73;;;28.63;;
45522;SDS011;31254;51.680;5.394;2023-02-10T08:15:22;82.17;;;26.70;;
45522;SDS011;31254;51.680;5.394;2023-02-10T08:17:54;59.87;;;25.67;;
45522;SDS011;31254;51.680;5.394;2023-02-10T08:20:20;75.67;;;26.77;;
45522;SDS011;31254;51.680;5.394;2023-02-10T08:22:47;80.67;;;26.63;;
45522;SDS011;31254;51.680;5.394;2023-02-10T08:25:14;73.90;;;27.90;;
45522;SDS011;31254;51.680;5.394;2023-02-10T08:27:40;79.33;;;26.43;;
45522;SDS011;31254;51.680;5.394;2023-02-10T08:30:07;72.23;;;26.97;;
45522;SDS011;31254;51.680;5.394;2023-02-10T08:32:34;74.00;;;25.87;;
45522;SDS011;31254;51.680;5.394;2023-02-10T08:35:03;76.67;;;27.77;;
45522;SDS011;31254;51.680;5.394;2023-02-10T08:37:32;79.13;;;27.13;;
45522;SDS011;31254;51.680;5.394;2023-02-10T08:39:59;68.87;;;26.23;;
45522;SDS011;31254;51.680;5.394;2023-02-10T08:42:28;77.37;;;26.60;;
45522;SDS011;31254;51.680;5.394;2023-02-10T08:44:57;66.40;;;26.17;;
45522;SDS011;31254;51.680;5.394;2023-02-10T08:47:24;76.17;;;28.07;;
45522;SDS011;31254;51.680;5.394;2023-02-10T08:49:50;79.23;;;28.67;;
45522;SDS011;31254;51.680;5.394;2023-02-10T08:52:20;79.90;;;29.67;;
45522;SDS011;31254;51.680;5.394;2023-02-10T08:54:48;73.73;;;28.13;;
45522;SDS011;31254;51.680;5.394;2023-02-10T08:57:17;73.20;;;27.47;;
45522;SDS011;31254;51.680;5.394;2023-02-10T08:59:44;80.00;;;28.33;;
45522;SDS011;31254;51.680;5.394;2023-02-10T09:02:11;82.23;;;28.30;;
45522;SDS011;31254;51.680;5.394;2023-02-10T09:04:38;84.40;;;29.17;;
45522;SDS011;31254;51.680;5.394;2023-02-10T09:07:08;84.63;;;28.83;;
45522;SDS011;31254;51.680;5.394;2023-02-10T09:09:40;90.80;;;31.10;;
45522;SDS011;31254;51.680;5.394;2023-02-10T09:12:10;81.43;;;27.90;;
45522;SDS011;31254;51.680;5.394;2023-02-10T09:14:40;75.77;;;27.97;;
45522;SDS011;31254;51.680;5.394;2023-02-10T09:17:09;85.83;;;29.27;;
45522;SDS011;31254;51.680;5.394;2023-02-10T09:19:39;91.90;;;31.83;;
45522;SDS011;31254;51.680;5.394;2023-02-10T09:22:06;89.47;;;30.77;;
45522;SDS011;31254;51.680;5.394;2023-02-10T09:24:33;82.27;;;31.03;;
45522;SDS011;31254;51.680;5.394;2023-02-10T09:27:00;76.93;;;28.60;;
45522;SDS011;31254;51.680;5.394;2023-02-10T09:29:29;82.80;;;30.47;;
45522;SDS011;31254;51.680;5.394;2023-02-10T09:31:58;92.50;;;30.83;;
45522;SDS011;31254;51.680;5.394;2023-02-10T09:34:25;86.90;;;31.23;;
45522;SDS011;31254;51.680;5.394;2023-02-10T09:36:51;91.10;;;29.70;;
45522;SDS011;31254;51.680;5.394;2023-02-10T09:39:23;90.13;;;29.83;;
45522;SDS011;31254;51.680;5.394;2023-02-10T09:41:55;83.00;;;30.03;;
45522;SDS011;31254;51.680;5.394;2023-02-10T09:44:32;80.17;;;30.87;;
45522;SDS011;31254;51.680;5.394;2023-02-10T09:50:19;84.13;;;30.63;;
45522;SDS011;31254;51.680;5.394;2023-02-10T09:56:00;90.37;;;32.03;;
45522;SDS011;31254;51.680;5.394;2023-02-10T10:01:29;89.37;;;29.97;;
45522;SDS011;31254;51.680;5.394;2023-02-10T10:06:48;80.40;;;29.77;;
45522;SDS011;31254;51.680;5.394;2023-02-10T10:11:57;84.90;;;29.07;;
45522;SDS011;31254;51.680;5.394;2023-02-10T10:16:58;77.50;;;28.73;;
45522;SDS011;31254;51.680;5.394;2023-02-10T10:22:49;64.73;;;27.27;;
45522;SDS011;31254;51.680;5.394;2023-02-10T10:31:30;65.63;;;26.73;;
45522;SDS011;31254;51.680;5.394;2023-02-10T10:36:48;67.30;;;25.43;;
45522;SDS011;31254;51.680;5.394;2023-02-10T10:42:41;62.88;;;25.17;;
45522;SDS011;31254;51.680;5.394;2023-02-10T10:45:02;61.95;;;25.38;;
45522;SDS011;31254;51.680;5.394;2023-02-10T10:50:30;68.25;;;24.75;;
45522;SDS011;31254;51.680;5.394;2023-02-10T10:53:11;62.83;;;24.25;;
45522;SDS011;31254;51.680;5.394;2023-02-10T10:55:51;67.40;;;24.55;;
45522;SDS011;31254;51.680;5.394;2023-02-10T10:58:23;62.78;;;24.95;;
45522;SDS011;31254;51.680;5.394;2023-02-10T11:00:55;65.35;;;25.25;;
45522;SDS011;31254;51.680;5.394;2023-02-10T11:03:24;62.50;;;24.48;;
45522;SDS011;31254;51.680;5.394;2023-02-10T11:08:40;64.07;;;23.92;;
45522;SDS011;31254;51.680;5.394;2023-02-10T11:11:13;58.05;;;25.33;;
45522;SDS011;31254;51.680;5.394;2023-02-10T11:14:02;58.03;;;23.13;;
45522;SDS011;31254;51.680;5.394;2023-02-10T11:16:45;59.50;;;22.58;;
45522;SDS011;31254;51.680;5.394;2023-02-10T11:19:22;55.53;;;23.70;;
45522;SDS011;31254;51.680;5.394;2023-02-10T11:21:51;53.35;;;24.27;;
45522;SDS011;31254;51.680;5.394;2023-02-10T11:27:27;68.30;;;26.00;;
45522;SDS011;31254;51.680;5.394;2023-02-10T11:29:54;55.17;;;23.48;;
45522;SDS011;31254;51.680;5.394;2023-02-10T11:32:29;59.08;;;23.75;;
45522;SDS011;31254;51.680;5.394;2023-02-10T11:35:00;59.72;;;23.73;;
45522;SDS011;31254;51.680;5.394;2023-02-10T11:37:30;61.58;;;24.35;;
45522;SDS011;31254;51.680;5.394;2023-02-10T11:40:05;57.60;;;24.33;;
45522;SDS011;31254;51.680;5.394;2023-02-10T11:42:51;59.45;;;23.52;;
45522;SDS011;31254;51.680;5.394;2023-02-10T11:45:27;55.83;;;23.95;;
45522;SDS011;31254;51.680;5.394;2023-02-10T11:48:05;55.67;;;23.70;;
45522;SDS011;31254;51.680;5.394;2023-02-10T11:50:37;58.30;;;25.17;;
45522;SDS011;31254;51.680;5.394;2023-02-10T11:53:08;58.17;;;25.27;;
45522;SDS011;31254;51.680;5.394;2023-02-10T11:55:56;59.95;;;24.23;;
45522;SDS011;31254;51.680;5.394;2023-02-10T11:58:45;53.92;;;23.33;;
45522;SDS011;31254;51.680;5.394;2023-02-10T12:01:42;62.45;;;25.40;;
45522;SDS011;31254;51.680;5.394;2023-02-10T12:04:17;53.58;;;24.50;;
45522;SDS011;31254;51.680;5.394;2023-02-10T12:09:52;55.05;;;24.08;;
45522;SDS011;31254;51.680;5.394;2023-02-10T12:18:22;56.40;;;25.73;;
45522;SDS011;31254;51.680;5.394;2023-02-10T12:21:04;63.05;;;27.92;;
45522;SDS011;31254;51.680;5.394;2023-02-10T12:53:40;65.75;;;30.23;;
45522;SDS011;31254;51.680;5.394;2023-02-10T12:58:54;63.13;;;29.52;;
45522;SDS011;31254;51.680;5.394;2023-02-10T13:01:29;63.05;;;29.77;;
45522;SDS011;31254;51.680;5.394;2023-02-10T13:04:11;61.90;;;29.83;;
45522;SDS011;31254;51.680;5.394;2023-02-10T13:06:46;67.78;;;32.78;;
45522;SDS011;31254;51.680;5.394;2023-02-10T13:14:34;75.00;;;37.55;;
45522;SDS011;31254;51.680;5.394;2023-02-10T13:17:06;84.45;;;41.42;;
45522;SDS011;31254;51.680;5.394;2023-02-10T13:19:43;80.65;;;39.72;;
45522;SDS011;31254;51.680;5.394;2023-02-10T13:24:50;82.28;;;42.38;;
45522;SDS011;31254;51.680;5.394;2023-02-10T13:36:09;79.38;;;40.28;;
45522;SDS011;31254;51.680;5.394;2023-02-10T13:38:41;83.70;;;40.85;;
45522;SDS011;31254;51.680;5.394;2023-02-10T13:41:22;76.95;;;38.95;;
45522;SDS011;31254;51.680;5.394;2023-02-10T13:46:54;71.63;;;37.78;;
45522;SDS011;31254;51.680;5.394;2023-02-10T13:49:22;76.22;;;40.10;;
45522;SDS011;31254;51.680;5.394;2023-02-10T13:51:58;69.20;;;39.10;;
45522;SDS011;31254;51.680;5.394;2023-02-10T13:54:31;66.90;;;37.35;;
45522;SDS011;31254;51.680;5.394;2023-02-10T13:56:59;65.45;;;36.47;;
45522;SDS011;31254;51.680;5.394;2023-02-10T13:59:36;61.60;;;36.05;;
45522;SDS011;31254;51.680;5.394;2023-02-10T14:02:16;60.50;;;34.90;;
45522;SDS011;31254;51.680;5.394;2023-02-10T14:04:49;57.90;;;33.88;;
45522;SDS011;31254;51.680;5.394;2023-02-10T14:10:00;63.08;;;33.25;;
45522;SDS011;31254;51.680;5.394;2023-02-10T14:12:28;55.17;;;31.77;;
45522;SDS011;31254;51.680;5.394;2023-02-10T14:14:55;52.63;;;28.50;;
45522;SDS011;31254;51.680;5.394;2023-02-10T14:17:25;55.53;;;30.77;;
45522;SDS011;31254;51.680;5.394;2023-02-10T14:20:00;53.90;;;29.80;;
45522;SDS011;31254;51.680;5.394;2023-02-10T14:22:43;61.63;;;34.13;;
45522;SDS011;31254;51.680;5.394;2023-02-10T14:25:59;54.42;;;32.15;;
45522;SDS011;31254;51.680;5.394;2023-02-10T14:28:22;56.08;;;30.90;;
45522;SDS011;31254;51.680;5.394;2023-02-10T14:30:57;58.53;;;30.20;;
45522;SDS011;31254;51.680;5.394;2023-02-10T14:33:33;49.22;;;28.30;;
45522;SDS011;31254;51.680;5.394;2023-02-10T14:36:07;49.83;;;27.50;;
45522;SDS011;31254;51.680;5.394;2023-02-10T14:38:44;49.05;;;27.75;;
45522;SDS011;31254;51.680;5.394;2023-02-10T14:41:17;53.67;;;29.17;;
45522;SDS011;31254;51.680;5.394;2023-02-10T14:43:46;53.42;;;28.00;;
45522;SDS011;31254;51.680;5.394;2023-02-10T14:46:33;51.28;;;28.02;;
45522;SDS011;31254;51.680;5.394;2023-02-10T14:49:07;47.78;;;27.85;;
45522;SDS011;31254;51.680;5.394;2023-02-10T14:51:39;57.15;;;27.90;;
45522;SDS011;31254;51.680;5.394;2023-02-10T14:54:19;50.03;;;27.35;;
45522;SDS011;31254;51.680;5.394;2023-02-10T14:56:49;51.08;;;26.83;;
45522;SDS011;31254;51.680;5.394;2023-02-10T14:59:25;50.22;;;27.02;;
45522;SDS011;31254;51.680;5.394;2023-02-10T15:01:58;54.33;;;27.35;;
45522;SDS011;31254;51.680;5.394;2023-02-10T15:04:45;50.42;;;26.50;;
45522;SDS011;31254;51.680;5.394;2023-02-10T15:07:18;53.05;;;27.30;;
45522;SDS011;31254;51.680;5.394;2023-02-10T15:09:49;47.58;;;24.50;;
45522;SDS011;31254;51.680;5.394;2023-02-10T15:12:17;49.90;;;26.05;;
45522;SDS011;31254;51.680;5.394;2023-02-10T15:17:34;51.75;;;26.15;;
45522;SDS011;31254;51.680;5.394;2023-02-10T15:33:22;50.92;;;25.50;;
45522;SDS011;31254;51.680;5.394;2023-02-10T15:38:24;42.78;;;23.83;;
45522;SDS011;31254;51.680;5.394;2023-02-10T15:40:54;50.92;;;25.10;;
45522;SDS011;31254;51.680;5.394;2023-02-10T15:43:27;50.25;;;25.73;;
45522;SDS011;31254;51.680;5.394;2023-02-10T15:48:53;49.97;;;25.25;;
45522;SDS011;31254;51.680;5.394;2023-02-10T15:51:35;48.20;;;24.30;;
45522;SDS011;31254;51.680;5.394;2023-02-10T15:54:10;44.70;;;24.33;;
45522;SDS011;31254;51.680;5.394;2023-02-10T15:56:39;53.83;;;24.90;;
45522;SDS011;31254;51.680;5.394;2023-02-10T15:59:12;49.65;;;24.30;;
45522;SDS011;31254;51.680;5.394;2023-02-10T16:01:41;44.80;;;23.92;;
45522;SDS011;31254;51.680;5.394;2023-02-10T16:04:08;49.17;;;23.08;;
45522;SDS011;31254;51.680;5.394;2023-02-10T16:06:35;49.67;;;24.42;;
45522;SDS011;31254;51.680;5.394;2023-02-10T16:09:05;40.88;;;21.85;;
45522;SDS011;31254;51.680;5.394;2023-02-10T16:11:32;45.22;;;23.55;;
45522;SDS011;31254;51.680;5.394;2023-02-10T16:14:01;48.38;;;23.25;;
45522;SDS011;31254;51.680;5.394;2023-02-10T16:16:30;45.22;;;23.10;;
45522;SDS011;31254;51.680;5.394;2023-02-10T16:18:59;39.72;;;21.70;;
45522;SDS011;31254;51.680;5.394;2023-02-10T16:21:25;50.28;;;22.35;;
45522;SDS011;31254;51.680;5.394;2023-02-10T16:23:52;44.05;;;22.15;;
45522;SDS011;31254;51.680;5.394;2023-02-10T16:26:23;42.78;;;21.52;;
45522;SDS011;31254;51.680;5.394;2023-02-10T16:28:52;39.55;;;22.20;;
45522;SDS011;31254;51.680;5.394;2023-02-10T16:31:18;41.00;;;23.42;;
45522;SDS011;31254;51.680;5.394;2023-02-10T16:33:47;40.33;;;21.50;;
45522;SDS011;31254;51.680;5.394;2023-02-10T16:36:17;43.78;;;22.30;;
45522;SDS011;31254;51.680;5.394;2023-02-10T16:38:43;40.22;;;21.92;;
45522;SDS011;31254;51.680;5.394;2023-02-10T16:41:16;39.38;;;21.55;;
45522;SDS011;31254;51.680;5.394;2023-02-10T16:43:43;45.75;;;22.63;;
45522;SDS011;31254;51.680;5.394;2023-02-10T16:46:11;45.30;;;23.05;;
45522;SDS011;31254;51.680;5.394;2023-02-10T16:48:41;43.75;;;21.30;;
45522;SDS011;31254;51.680;5.394;2023-02-10T16:51:10;52.38;;;22.90;;
45522;SDS011;31254;51.680;5.394;2023-02-10T16:53:37;42.17;;;21.63;;
45522;SDS011;31254;51.680;5.394;2023-02-10T16:56:09;45.25;;;22.20;;
45522;SDS011;31254;51.680;5.394;2023-02-10T16:58:43;46.40;;;22.15;;
45522;SDS011;31254;51.680;5.394;2023-02-10T17:01:10;45.13;;;21.85;;
45522;SDS011;31254;51.680;5.394;2023-02-10T17:03:37;51.78;;;22.92;;